createdAt,value
2019-01-26T00:01:13.350Z,10.50
2019-01-26T00:03:40.139Z,11.43
2019-01-26T00:06:07.557Z,9.43
2019-01-26T00:08:34.137Z,10.77
2019-01-26T00:11:02.345Z,10.37
2019-01-26T00:13:29.127Z,10.60
2019-01-26T00:15:55.651Z,10.73
2019-01-26T00:18:22.320Z,11.43
2019-01-26T00:20:49.363Z,9.83
2019-01-26T00:23:16.958Z,9.90
2019-01-26T00:25:43.438Z,10.10
2019-01-26T00:28:10.289Z,9.50
2019-01-26T00:30:36.948Z,9.87
2019-01-26T00:33:03.870Z,9.40
2019-01-26T00:35:30.517Z,10.03
2019-01-26T00:37:58.454Z,10.60
2019-01-26T00:40:25.137Z,10.47
2019-01-26T00:42:52.973Z,10.50
2019-01-26T00:45:19.532Z,9.97
2019-01-26T00:47:46.429Z,10.10
2019-01-26T00:50:13.458Z,9.90
2019-01-26T00:52:39.983Z,9.67
2019-01-26T00:55:06.747Z,8.93
2019-01-26T00:57:33.359Z,10.33
2019-01-26T01:00:00.381Z,10.70
2019-01-26T01:02:27.636Z,9.97
2019-01-26T01:04:54.617Z,10.30
2019-01-26T01:07:21.432Z,10.13
2019-01-26T01:09:48.566Z,8.90
2019-01-26T01:12:17.444Z,9.43
2019-01-26T01:14:44.119Z,9.73
2019-01-26T01:17:10.746Z,8.90
2019-01-26T01:19:37.398Z,8.17
2019-01-26T01:22:04.083Z,9.17
2019-01-26T01:24:30.644Z,9.60
2019-01-26T01:26:59.829Z,9.20
2019-01-26T01:29:26.709Z,9.37
2019-01-26T01:31:53.202Z,9.00
2019-01-26T01:34:19.758Z,10.43
2019-01-26T01:36:46.343Z,8.20
2019-01-26T01:39:12.946Z,9.13
2019-01-26T01:41:39.536Z,9.60
2019-01-26T01:44:06.680Z,9.03
2019-01-26T01:46:33.219Z,8.30
2019-01-26T01:48:59.853Z,8.80
2019-01-26T01:51:26.794Z,8.63
2019-01-26T01:53:53.720Z,7.37
2019-01-26T01:56:20.385Z,8.37
2019-01-26T01:58:46.905Z,8.50
2019-01-26T02:01:13.789Z,7.57
2019-01-26T02:03:40.459Z,6.37
2019-01-26T02:06:07.143Z,7.80
2019-01-26T02:08:33.682Z,8.27
2019-01-26T02:11:00.315Z,7.60
2019-01-26T02:13:26.838Z,7.37
2019-01-26T02:15:53.625Z,7.43
2019-01-26T02:18:20.696Z,7.50
2019-01-26T02:20:47.212Z,7.27
2019-01-26T02:23:14.071Z,6.63
2019-01-26T02:25:40.621Z,6.10
2019-01-26T02:28:07.702Z,6.33
2019-01-26T02:30:34.352Z,6.40
2019-01-26T02:33:01.266Z,5.83
2019-01-26T02:35:27.912Z,5.30
2019-01-26T02:37:54.598Z,5.00
2019-01-26T02:40:21.199Z,5.30
2019-01-26T02:42:48.251Z,5.13
2019-01-26T02:45:16.334Z,4.50
2019-01-26T02:47:43.093Z,4.07
2019-01-26T02:50:12.224Z,4.70
2019-01-26T02:52:41.324Z,4.03
2019-01-26T02:55:08.059Z,4.03
2019-01-26T02:57:35.131Z,3.63
2019-01-26T03:00:01.725Z,4.50
2019-01-26T03:02:28.450Z,4.10
2019-01-26T03:04:54.918Z,3.80
2019-01-26T03:07:21.898Z,3.97
2019-01-26T03:09:48.543Z,4.07
2019-01-26T03:12:15.504Z,3.80
2019-01-26T03:14:41.987Z,4.03
2019-01-26T03:17:08.670Z,4.10
2019-01-26T03:19:35.172Z,3.73
2019-01-26T03:22:01.686Z,4.10
2019-01-26T03:24:28.244Z,4.70
2019-01-26T03:26:54.747Z,4.33
2019-01-26T03:29:21.652Z,4.10
2019-01-26T03:31:48.515Z,3.47
2019-01-26T03:34:15.351Z,3.50
2019-01-26T03:36:41.842Z,3.50
2019-01-26T03:39:08.511Z,3.47
2019-01-26T03:41:34.982Z,4.07
2019-01-26T03:44:01.915Z,3.00
2019-01-26T03:46:28.389Z,3.57
2019-01-26T03:48:55.265Z,3.27
2019-01-26T03:51:21.776Z,3.27
2019-01-26T03:53:48.509Z,3.17
2019-01-26T03:56:15.165Z,3.10
2019-01-26T03:58:41.738Z,2.83
2019-01-26T04:01:08.275Z,2.90
2019-01-26T04:03:35.358Z,2.80
2019-01-26T04:06:01.910Z,2.70
2019-01-26T04:08:28.582Z,2.87
2019-01-26T04:10:55.042Z,2.83
2019-01-26T04:13:21.605Z,2.93
2019-01-26T04:15:48.138Z,2.57
2019-01-26T04:18:15.132Z,2.80
2019-01-26T04:20:41.743Z,2.97
2019-01-26T04:23:08.387Z,2.90
2019-01-26T04:25:34.866Z,3.00
2019-01-26T04:28:01.521Z,2.83
2019-01-26T04:30:28.103Z,2.90
2019-01-26T04:32:54.614Z,2.83
2019-01-26T04:35:21.369Z,2.67
2019-01-26T04:37:48.375Z,2.73
2019-01-26T04:40:16.040Z,2.13
2019-01-26T04:42:42.951Z,2.63
2019-01-26T04:45:12.252Z,2.30
2019-01-26T04:47:38.859Z,2.63
2019-01-26T04:50:08.859Z,2.40
2019-01-26T04:52:35.750Z,2.93
2019-01-26T04:55:02.599Z,2.83
2019-01-26T04:57:29.055Z,2.20
2019-01-26T04:59:55.566Z,2.90
2019-01-26T05:02:22.159Z,2.33
2019-01-26T05:04:48.717Z,2.63
2019-01-26T05:07:15.165Z,2.40
2019-01-26T05:09:43.924Z,2.27
2019-01-26T05:12:10.574Z,2.87
2019-01-26T05:14:37.416Z,2.50
2019-01-26T05:17:04.071Z,2.20
2019-01-26T05:19:30.557Z,2.63
2019-01-26T05:21:57.069Z,2.50
2019-01-26T05:24:23.973Z,2.20
2019-01-26T05:26:50.509Z,2.17
2019-01-26T05:29:17.262Z,2.43
2019-01-26T05:31:43.713Z,2.90
2019-01-26T05:34:10.215Z,2.00
2019-01-26T05:36:36.709Z,1.90
2019-01-26T05:39:06.387Z,1.90
2019-01-26T05:41:32.963Z,2.20
2019-01-26T05:43:59.425Z,1.97
2019-01-26T05:46:26.595Z,2.13
2019-01-26T05:48:53.343Z,2.03
2019-01-26T05:51:20.163Z,1.73
2019-01-26T05:53:46.691Z,1.80
2019-01-26T05:56:13.240Z,1.97
2019-01-26T05:58:39.721Z,1.80
2019-01-26T06:01:06.355Z,2.13
2019-01-26T06:03:32.833Z,1.83
2019-01-26T06:05:59.401Z,2.17
2019-01-26T06:08:25.872Z,1.87
2019-01-26T06:10:52.674Z,2.00
2019-01-26T06:13:19.149Z,2.60
2019-01-26T06:15:45.833Z,2.93
2019-01-26T06:18:13.001Z,2.93
2019-01-26T06:20:39.515Z,2.53
2019-01-26T06:23:06.065Z,2.80
2019-01-26T06:25:32.737Z,2.50
2019-01-26T06:27:59.573Z,2.63
2019-01-26T06:30:26.128Z,2.63
2019-01-26T06:32:52.665Z,2.00
2019-01-26T06:35:19.436Z,2.13
2019-01-26T06:37:52.852Z,2.00
2019-01-26T06:40:19.723Z,2.40
2019-01-26T06:42:46.353Z,2.67
2019-01-26T06:45:14.598Z,2.00
2019-01-26T06:47:41.542Z,1.27
2019-01-26T06:50:11.172Z,1.73
2019-01-26T06:52:37.658Z,1.93
2019-01-26T06:55:05.365Z,2.00
2019-01-26T06:57:31.943Z,1.60
2019-01-26T06:59:58.514Z,1.40
2019-01-26T07:02:24.983Z,1.50
2019-01-26T07:04:56.825Z,1.47
2019-01-26T07:07:30.298Z,1.33
2019-01-26T07:09:56.820Z,1.37
2019-01-26T07:12:23.309Z,1.80
2019-01-26T07:14:50.130Z,1.70
2019-01-26T07:17:16.622Z,1.63
2019-01-26T07:19:43.167Z,1.70
2019-01-26T07:22:09.826Z,1.83
2019-01-26T07:24:36.329Z,1.93
2019-01-26T07:27:03.395Z,1.80
2019-01-26T07:29:29.923Z,1.00
2019-01-26T07:31:56.696Z,1.10
2019-01-26T07:34:23.327Z,0.97
2019-01-26T07:36:49.826Z,0.70
2019-01-26T07:39:16.338Z,0.80
2019-01-26T07:41:43.107Z,0.60
2019-01-26T07:44:09.689Z,1.10
2019-01-26T07:46:36.536Z,0.70
2019-01-26T07:49:03.659Z,0.83
2019-01-26T07:51:30.186Z,0.60
2019-01-26T07:53:56.773Z,0.50
2019-01-26T07:56:24.034Z,0.50
2019-01-26T07:58:50.776Z,0.53
2019-01-26T08:01:17.334Z,0.50
2019-01-26T08:03:43.850Z,0.60
2019-01-26T08:06:10.297Z,0.63
2019-01-26T08:08:37.035Z,0.87
2019-01-26T08:11:03.955Z,0.70
2019-01-26T08:13:31.070Z,0.73
2019-01-26T08:15:57.815Z,0.53
2019-01-26T08:18:24.503Z,0.90
2019-01-26T08:20:51.297Z,0.90
2019-01-26T08:23:18.175Z,0.77
2019-01-26T08:25:44.711Z,0.80
2019-01-26T08:28:11.697Z,1.07
2019-01-26T08:30:43.453Z,0.80
2019-01-26T08:33:10.059Z,0.70
2019-01-26T08:35:36.697Z,1.03
2019-01-26T08:38:03.592Z,0.93
2019-01-26T08:40:30.164Z,0.80
2019-01-26T08:42:56.776Z,0.80
2019-01-26T08:45:24.041Z,0.73
2019-01-26T08:47:50.731Z,1.10
2019-01-26T08:50:24.641Z,1.10
2019-01-26T08:52:51.334Z,0.80
2019-01-26T08:55:18.651Z,1.00
2019-01-26T08:57:45.935Z,1.10
2019-01-26T09:00:17.986Z,1.00
2019-01-26T09:03:04.281Z,0.80
2019-01-26T09:05:34.974Z,0.90
2019-01-26T09:08:03.721Z,0.80
2019-01-26T09:10:32.418Z,0.70
2019-01-26T09:12:59.191Z,0.80
2019-01-26T09:15:27.973Z,0.90
2019-01-26T09:17:55.680Z,1.00
2019-01-26T09:20:22.244Z,0.80
2019-01-26T09:22:48.762Z,0.70
2019-01-26T09:25:15.631Z,0.83
2019-01-26T09:27:42.601Z,0.60
2019-01-26T09:30:10.424Z,0.70
2019-01-26T09:32:36.936Z,1.03
2019-01-26T09:35:04.463Z,0.70
2019-01-26T09:37:35.498Z,0.70
2019-01-26T09:40:02.721Z,1.03
2019-01-26T09:42:29.267Z,1.33
2019-01-26T09:44:56.349Z,1.30
2019-01-26T09:47:22.877Z,1.67
2019-01-26T09:49:49.512Z,1.73
2019-01-26T09:52:16.065Z,2.10
2019-01-26T09:54:43.763Z,1.93
2019-01-26T09:57:10.622Z,1.87
2019-01-26T09:59:37.079Z,2.17
2019-01-26T10:02:06.290Z,2.20
2019-01-26T10:04:32.754Z,2.00
2019-01-26T10:06:59.283Z,2.63
2019-01-26T10:09:25.887Z,2.53
2019-01-26T10:11:53.768Z,3.67
2019-01-26T10:14:21.796Z,3.40
2019-01-26T10:16:48.810Z,2.77
2019-01-26T10:19:15.417Z,2.70
2019-01-26T10:21:42.469Z,3.33
2019-01-26T10:24:09.430Z,3.07
2019-01-26T10:26:37.009Z,3.03
2019-01-26T10:29:03.732Z,2.90
2019-01-26T10:31:30.332Z,2.90
2019-01-26T10:33:58.926Z,3.00
2019-01-26T10:36:30.235Z,2.97
2019-01-26T10:39:01.022Z,2.50
2019-01-26T10:41:50.138Z,2.60
2019-01-26T10:44:22.708Z,2.57
2019-01-26T10:46:49.287Z,2.27
2019-01-26T10:49:16.083Z,2.50
2019-01-26T10:51:43.921Z,2.40
2019-01-26T10:54:10.696Z,2.10
2019-01-26T10:56:37.494Z,2.70
2019-01-26T10:59:04.293Z,2.07
2019-01-26T11:01:30.810Z,1.60
2019-01-26T11:03:57.517Z,1.90
2019-01-26T11:06:27.500Z,1.50
2019-01-26T11:08:54.124Z,2.07
2019-01-26T11:11:21.042Z,1.50
2019-01-26T11:13:47.817Z,1.37
2019-01-26T11:16:14.292Z,1.70
2019-01-26T11:18:40.873Z,1.50
2019-01-26T11:21:07.598Z,2.00
2019-01-26T11:23:34.411Z,1.60
2019-01-26T11:26:03.450Z,1.63
2019-01-26T11:28:30.073Z,1.40
2019-01-26T11:30:56.671Z,1.40
2019-01-26T11:33:23.197Z,1.30
2019-01-26T11:35:49.743Z,1.57
2019-01-26T11:38:16.227Z,1.20
2019-01-26T11:40:43.377Z,1.40
2019-01-26T11:43:11.076Z,1.30
2019-01-26T11:45:49.976Z,1.30
2019-01-26T11:48:20.737Z,1.10
2019-01-26T11:50:51.946Z,1.30
2019-01-26T11:53:19.521Z,1.20
2019-01-26T11:56:15.351Z,1.17
2019-01-26T11:58:42.638Z,0.87
2019-01-26T12:01:38.218Z,1.20
2019-01-26T12:04:24.585Z,1.13
2019-01-26T12:06:58.371Z,1.10
2019-01-26T12:09:26.531Z,1.40
2019-01-26T12:11:53.522Z,1.80
2019-01-26T12:14:20.265Z,1.40
2019-01-26T12:16:47.131Z,1.07
2019-01-26T12:19:13.674Z,1.77
2019-01-26T12:21:40.646Z,1.50
2019-01-26T12:24:08.248Z,1.47
2019-01-26T12:26:34.846Z,1.50
2019-01-26T12:29:01.394Z,1.60
2019-01-26T12:31:28.075Z,1.47
2019-01-26T12:33:55.695Z,1.40
2019-01-26T12:36:22.216Z,1.40
2019-01-26T12:38:48.893Z,1.47
2019-01-26T12:41:15.648Z,1.10
2019-01-26T12:43:42.175Z,1.23
2019-01-26T12:46:09.009Z,1.23
2019-01-26T12:48:35.964Z,1.27
2019-01-26T12:51:04.073Z,1.50
2019-01-26T12:53:30.748Z,1.03
2019-01-26T12:56:01.384Z,1.00
2019-01-26T12:58:27.947Z,1.17
2019-01-26T13:00:54.802Z,1.00
2019-01-26T13:03:21.306Z,1.00
2019-01-26T13:05:48.169Z,1.10
2019-01-26T13:08:14.998Z,1.20
2019-01-26T13:10:44.848Z,1.40
2019-01-26T13:13:11.599Z,1.40
2019-01-26T13:15:38.274Z,1.07
2019-01-26T13:18:05.414Z,1.30
2019-01-26T13:20:32.526Z,1.53
2019-01-26T13:34:32.237Z,1.27
2019-01-26T13:36:59.205Z,1.57
2019-01-26T13:39:25.991Z,1.93
2019-01-26T13:41:53.137Z,2.20
2019-01-26T13:44:21.964Z,1.80
2019-01-26T13:46:48.622Z,1.87
2019-01-26T13:49:15.170Z,2.30
2019-01-26T13:51:43.113Z,1.87
2019-01-26T13:54:09.712Z,2.20
2019-01-26T13:56:36.522Z,2.63
2019-01-26T13:59:03.202Z,2.40
2019-01-26T14:01:31.397Z,2.83
2019-01-26T14:04:02.180Z,2.10
2019-01-26T14:06:29.023Z,1.90
2019-01-26T14:08:56.173Z,2.47
2019-01-26T14:11:22.923Z,2.97
2019-01-26T14:13:49.816Z,2.10
2019-01-26T14:16:16.726Z,2.93
2019-01-26T14:18:43.451Z,2.57
2019-01-26T14:21:10.438Z,2.47
2019-01-26T14:23:37.577Z,2.70
2019-01-26T14:26:04.256Z,2.40
2019-01-26T14:28:30.784Z,2.30
2019-01-26T14:30:59.990Z,2.23
2019-01-26T14:33:26.932Z,2.70
2019-01-26T14:35:53.717Z,2.43
2019-01-26T14:38:20.356Z,2.70
2019-01-26T14:40:47.185Z,2.60
2019-01-26T14:43:13.710Z,2.70
2019-01-26T14:45:40.190Z,2.57
2019-01-26T14:48:07.172Z,2.57
2019-01-26T14:50:33.887Z,2.17
2019-01-26T14:53:00.610Z,2.17
2019-01-26T14:55:27.486Z,1.83
2019-01-26T14:57:54.997Z,1.67
2019-01-26T15:00:24.064Z,1.70
2019-01-26T15:02:50.573Z,1.70
2019-01-26T15:05:17.472Z,1.40
2019-01-26T15:07:43.986Z,1.67
2019-01-26T15:10:10.711Z,1.50
2019-01-26T15:12:37.776Z,1.50
2019-01-26T15:15:05.657Z,1.63
2019-01-26T15:17:33.622Z,1.30
2019-01-26T15:20:05.701Z,1.50
2019-01-26T15:22:30.181Z,1.33
2019-01-26T15:24:57.888Z,1.33
2019-01-26T15:27:25.434Z,1.20
2019-01-26T15:29:51.915Z,1.30
2019-01-26T15:32:21.207Z,1.33
2019-01-26T15:34:49.224Z,1.50
2019-01-26T15:37:16.911Z,1.57
2019-01-26T15:39:45.680Z,2.50
2019-01-26T15:42:12.220Z,2.60
2019-01-26T15:44:38.845Z,2.00
2019-01-26T15:47:05.530Z,1.80
2019-01-26T15:49:33.645Z,2.37
2019-01-26T15:52:00.760Z,1.97
2019-01-26T15:54:28.477Z,2.00
2019-01-26T15:56:55.092Z,2.57
2019-01-26T15:59:21.932Z,2.07
2019-01-26T16:01:48.568Z,2.47
2019-01-26T16:04:15.113Z,3.10
2019-01-26T16:06:41.627Z,3.30
2019-01-26T16:09:08.747Z,5.10
2019-01-26T16:11:35.608Z,4.20
2019-01-26T16:14:02.281Z,3.90
2019-01-26T16:16:29.186Z,4.13
2019-01-26T16:18:55.745Z,5.30
2019-01-26T16:21:22.312Z,4.07
2019-01-26T16:23:48.989Z,4.00
2019-01-26T16:26:15.493Z,3.63
2019-01-26T16:28:42.037Z,3.33
2019-01-26T16:31:09.184Z,3.73
2019-01-26T16:33:35.854Z,3.93
2019-01-26T16:36:03.083Z,3.53
2019-01-26T16:38:30.973Z,3.57
2019-01-26T16:41:05.047Z,4.10
2019-01-26T16:43:33.735Z,3.17
2019-01-26T16:46:00.358Z,4.03
2019-01-26T16:48:28.067Z,3.67
2019-01-26T16:50:54.958Z,2.80
2019-01-26T16:53:21.528Z,3.00
2019-01-26T16:55:48.008Z,2.70
2019-01-26T16:58:14.582Z,2.63
2019-01-26T17:00:43.452Z,2.60
2019-01-26T17:03:10.638Z,2.47
2019-01-26T17:05:37.368Z,3.27
2019-01-26T17:08:04.569Z,2.80
2019-01-26T17:10:34.352Z,3.00
2019-01-26T17:13:04.493Z,3.33
2019-01-26T17:15:32.398Z,2.70
2019-01-26T17:17:59.070Z,2.57
2019-01-26T17:20:27.221Z,2.47
2019-01-26T17:22:54.522Z,2.60
2019-01-26T17:25:21.160Z,2.83
2019-01-26T17:27:48.848Z,2.97
2019-01-26T17:30:20.668Z,2.80
2019-01-26T17:32:47.362Z,2.93
2019-01-26T17:35:16.770Z,3.00
2019-01-26T17:37:43.853Z,2.90
2019-01-26T17:40:13.132Z,2.73
2019-01-26T17:42:40.356Z,2.53
2019-01-26T17:45:07.191Z,2.70
2019-01-26T17:47:33.688Z,2.70
2019-01-26T17:50:00.196Z,2.60
2019-01-26T17:52:30.001Z,2.10
2019-01-26T17:54:56.603Z,2.20
2019-01-26T17:57:23.156Z,2.33
2019-01-26T17:59:49.668Z,2.27
2019-01-26T18:02:16.627Z,1.90
2019-01-26T18:04:43.730Z,1.80
2019-01-26T18:07:10.651Z,1.90
2019-01-26T18:09:37.440Z,1.87
2019-01-26T18:12:04.277Z,1.77
2019-01-26T18:14:30.777Z,1.80
2019-01-26T18:16:57.255Z,1.63
2019-01-26T18:19:24.870Z,1.83
2019-01-26T18:21:51.493Z,1.60
2019-01-26T18:24:17.980Z,2.10
2019-01-26T18:26:44.445Z,1.77
2019-01-26T18:29:11.274Z,3.33
2019-01-26T18:31:37.935Z,1.43
2019-01-26T18:34:04.563Z,1.80
2019-01-26T18:36:33.872Z,3.10
2019-01-26T18:39:00.361Z,4.00
2019-01-26T18:41:27.341Z,2.33
2019-01-26T18:43:54.060Z,2.00
2019-01-26T18:46:20.628Z,1.63
2019-01-26T18:48:47.230Z,1.70
2019-01-26T18:51:13.689Z,2.00
2019-01-26T18:53:40.239Z,2.27
2019-01-26T18:56:06.818Z,1.83
2019-01-26T18:58:33.555Z,1.93
2019-01-26T19:01:00.158Z,1.87
2019-01-26T19:03:37.472Z,1.60
2019-01-26T19:06:04.690Z,1.77
2019-01-26T19:08:31.531Z,1.93
2019-01-26T19:10:58.435Z,1.90
2019-01-26T19:13:25.140Z,1.90
2019-01-26T19:15:51.816Z,2.03
2019-01-26T19:18:18.534Z,2.30
2019-01-26T19:20:45.114Z,2.93
2019-01-26T19:23:11.794Z,2.07
2019-01-26T19:25:38.325Z,2.00
2019-01-26T19:28:05.073Z,2.90
2019-01-26T19:30:33.845Z,2.60
2019-01-26T19:33:00.837Z,2.67
2019-01-26T19:35:28.594Z,2.47
2019-01-26T19:37:55.363Z,3.23
2019-01-26T19:40:22.370Z,3.40
2019-01-26T19:42:48.999Z,3.17
2019-01-26T19:45:17.735Z,2.83
2019-01-26T19:47:46.321Z,3.30
2019-01-26T19:50:15.611Z,3.30
2019-01-26T19:52:42.486Z,3.43
2019-01-26T19:55:09.135Z,3.90
2019-01-26T19:57:38.146Z,3.60
2019-01-26T20:00:07.151Z,3.23
2019-01-26T20:02:34.184Z,2.97
2019-01-26T20:05:00.730Z,3.40
2019-01-26T20:07:27.351Z,3.67
2019-01-26T20:09:54.047Z,3.67
2019-01-26T20:12:20.711Z,3.53
2019-01-26T20:14:47.503Z,3.73
2019-01-26T20:17:14.086Z,3.60
2019-01-26T20:19:41.933Z,2.90
2019-01-26T20:22:08.775Z,3.70
2019-01-26T20:24:35.340Z,3.70
2019-01-26T20:27:02.055Z,3.47
2019-01-26T20:29:28.788Z,3.07
2019-01-26T20:31:55.727Z,2.77
2019-01-26T20:34:22.345Z,3.20
2019-01-26T20:36:49.014Z,3.07
2019-01-26T20:39:15.701Z,2.73
2019-01-26T20:41:42.346Z,2.73
2019-01-26T20:44:09.137Z,2.20
2019-01-26T20:46:36.106Z,2.60
2019-01-26T20:49:02.958Z,2.53
2019-01-26T20:51:29.669Z,2.57
2019-01-26T20:53:59.494Z,2.80
2019-01-26T20:56:27.569Z,2.07
2019-01-26T20:58:55.149Z,2.27
2019-01-26T21:01:23.304Z,1.73
2019-01-26T21:03:50.092Z,1.97
2019-01-26T21:06:16.740Z,1.80
2019-01-26T21:08:43.417Z,1.60
2019-01-26T21:11:11.117Z,1.93
2019-01-26T21:13:39.840Z,1.67
2019-01-26T21:16:06.554Z,1.83
2019-01-26T21:18:34.507Z,1.87
2019-01-26T21:21:01.104Z,1.90
2019-01-26T21:23:27.747Z,1.67
2019-01-26T21:25:54.658Z,2.10
2019-01-26T21:28:21.709Z,1.60
2019-01-26T21:30:49.780Z,2.00
2019-01-26T21:33:18.652Z,1.70
2019-01-26T21:35:51.352Z,1.70
2019-01-26T21:38:18.102Z,1.63
2019-01-26T21:40:44.602Z,1.40
2019-01-26T21:43:13.319Z,1.30
2019-01-26T21:45:40.013Z,1.70
2019-01-26T21:48:06.619Z,1.57
2019-01-26T21:50:33.128Z,1.17
2019-01-26T21:52:59.715Z,1.60
2019-01-26T21:55:29.386Z,1.87
2019-01-26T21:57:56.035Z,1.47
2019-01-26T22:00:25.221Z,1.40
2019-01-26T22:02:51.915Z,1.40
2019-01-26T22:05:18.553Z,1.57
2019-01-26T22:07:46.247Z,1.13
2019-01-26T22:10:15.641Z,1.23
2019-01-26T22:12:42.250Z,1.40
2019-01-26T22:15:10.374Z,1.20
2019-01-26T22:17:37.250Z,1.40
2019-01-26T22:20:06.576Z,1.90
2019-01-26T22:22:33.179Z,1.17
2019-01-26T22:24:59.653Z,1.23
2019-01-26T22:27:26.228Z,1.10
2019-01-26T22:29:53.131Z,1.20
2019-01-26T22:32:20.028Z,1.20
2019-01-26T22:34:46.682Z,1.20
2019-01-26T22:37:13.514Z,1.37
2019-01-26T22:39:40.033Z,1.47
2019-01-26T22:42:06.712Z,1.23
2019-01-26T22:44:33.303Z,1.30
2019-01-26T22:47:02.143Z,0.90
2019-01-26T22:49:28.682Z,1.13
2019-01-26T22:51:56.325Z,1.00
2019-01-26T22:54:22.940Z,1.27
2019-01-26T22:56:49.453Z,1.00
2019-01-26T22:59:20.110Z,1.10
2019-01-26T23:01:47.162Z,1.17
2019-01-26T23:04:29.283Z,1.10
2019-01-26T23:07:31.608Z,1.20
2019-01-26T23:10:45.389Z,1.37
2019-01-26T23:13:17.157Z,1.37
2019-01-26T23:16:33.994Z,1.10
2019-01-26T23:19:12.171Z,1.40
2019-01-26T23:22:08.714Z,1.57
2019-01-26T23:25:03.899Z,1.63
2019-01-26T23:27:46.941Z,1.40
2019-01-26T23:30:45.213Z,1.27
2019-01-26T23:33:12.046Z,1.27
2019-01-26T23:35:38.738Z,1.63
2019-01-26T23:38:05.493Z,1.30
2019-01-26T23:40:32.034Z,1.40
2019-01-26T23:42:58.572Z,1.30
2019-01-26T23:45:27.264Z,1.33
2019-01-26T23:47:54.277Z,1.60
2019-01-26T23:50:20.727Z,1.40
2019-01-26T23:52:47.542Z,1.13
2019-01-26T23:55:14.236Z,1.33
2019-01-26T23:57:41.019Z,1.27
